createdAt,value
2022-11-05T00:01:05.992Z,15.82
2022-11-05T00:04:11.050Z,16.08
2022-11-05T00:07:18.587Z,16.23
2022-11-05T00:10:15.343Z,12.70
2022-11-05T00:13:20.826Z,13.38
2022-11-05T00:16:34.473Z,13.20
2022-11-05T00:19:22.003Z,11.10
2022-11-05T00:22:27.209Z,10.52
2022-11-05T00:25:17.612Z,9.43
2022-11-05T00:28:05.177Z,9.32
2022-11-05T00:30:53.341Z,10.48
2022-11-05T00:33:41.768Z,8.45
2022-11-05T00:36:29.367Z,9.32
2022-11-05T00:39:13.275Z,8.75
2022-11-05T00:42:18.326Z,10.02
2022-11-05T00:45:06.542Z,8.43
2022-11-05T00:48:11.781Z,9.65
2022-11-05T00:50:59.267Z,9.63
2022-11-05T00:53:46.781Z,9.10
2022-11-05T00:56:34.335Z,9.38
2022-11-05T00:59:05.210Z,8.40
2022-11-05T01:01:49.841Z,8.75
2022-11-05T01:04:37.374Z,9.00
2022-11-05T01:07:25.020Z,9.63
2022-11-05T01:10:12.504Z,9.98
2022-11-05T01:13:00.098Z,8.88
2022-11-05T01:15:48.008Z,9.60
2022-11-05T01:18:33.456Z,9.43
2022-11-05T01:21:15.776Z,9.98
2022-11-05T01:23:52.418Z,9.32
2022-11-05T01:26:33.741Z,8.95
2022-11-05T01:29:16.481Z,8.77
2022-11-05T01:32:04.028Z,10.00
2022-11-05T01:34:51.540Z,9.82
2022-11-05T01:37:39.693Z,9.90
2022-11-05T01:40:25.339Z,9.95
2022-11-05T01:42:56.050Z,9.95
2022-11-05T01:45:26.616Z,9.73
2022-11-05T01:47:56.359Z,9.80
2022-11-05T01:50:28.050Z,10.63
2022-11-05T01:52:59.624Z,10.00
2022-11-05T01:55:30.238Z,10.85
2022-11-05T01:57:59.782Z,10.52
2022-11-05T02:00:28.916Z,13.45
2022-11-05T02:03:18.190Z,13.27
2022-11-05T02:05:56.927Z,12.30
2022-11-05T02:08:47.401Z,11.18
2022-11-05T02:11:35.158Z,11.30
2022-11-05T02:14:04.622Z,11.82
2022-11-05T02:16:38.975Z,12.95
2022-11-05T02:19:08.258Z,12.13
2022-11-05T02:21:45.675Z,11.50
2022-11-05T02:24:14.115Z,12.90
2022-11-05T02:27:02.633Z,13.15
2022-11-05T02:29:50.298Z,13.88
2022-11-05T02:32:28.203Z,13.98
2022-11-05T02:35:02.510Z,13.20
2022-11-05T02:37:31.073Z,13.07
2022-11-05T02:40:19.128Z,13.13
2022-11-05T02:43:06.363Z,15.07
2022-11-05T02:45:34.619Z,14.95
2022-11-05T02:48:08.862Z,12.82
2022-11-05T02:50:36.802Z,13.60
2022-11-05T02:53:10.892Z,15.02
2022-11-05T02:55:56.807Z,12.85
2022-11-05T02:58:30.655Z,13.73
2022-11-05T03:01:06.994Z,13.02
2022-11-05T03:04:00.476Z,13.40
2022-11-05T03:06:48.747Z,13.13
2022-11-05T03:09:52.731Z,14.45
2022-11-05T03:12:39.514Z,13.85
2022-11-05T03:15:13.382Z,13.90
2022-11-05T03:17:54.818Z,13.57
2022-11-05T03:20:31.883Z,14.93
2022-11-05T03:23:22.507Z,14.90
2022-11-05T03:25:54.500Z,13.85
2022-11-05T03:28:25.479Z,14.00
2022-11-05T03:30:54.957Z,13.73
2022-11-05T03:33:26.423Z,13.95
2022-11-05T03:35:56.408Z,15.10
2022-11-05T03:38:28.183Z,14.98
2022-11-05T03:41:16.893Z,14.55
2022-11-05T03:44:06.307Z,13.52
2022-11-05T03:46:55.298Z,12.75
2022-11-05T03:49:29.636Z,13.80
2022-11-05T03:52:02.339Z,12.80
2022-11-05T03:57:00.388Z,15.15
2022-11-05T03:59:32.218Z,13.68
2022-11-05T04:02:03.841Z,14.07
2022-11-05T04:04:51.518Z,13.85
2022-11-05T04:07:56.773Z,15.05
2022-11-05T04:10:42.543Z,16.13
2022-11-05T04:13:27.686Z,15.15
2022-11-05T04:16:14.581Z,15.02
2022-11-05T04:18:43.183Z,15.38
2022-11-05T04:21:48.237Z,16.42
2022-11-05T04:24:35.721Z,15.65
2022-11-05T04:27:19.419Z,17.02
2022-11-05T04:30:11.362Z,15.55
2022-11-05T04:33:02.814Z,15.88
2022-11-05T04:35:34.898Z,16.58
2022-11-05T04:38:03.689Z,14.60
2022-11-05T04:40:32.893Z,14.68
2022-11-05T04:43:02.018Z,15.50
2022-11-05T04:45:32.958Z,16.45
2022-11-05T04:48:01.863Z,15.93
2022-11-05T04:50:33.365Z,15.00
2022-11-05T04:53:02.241Z,14.45
2022-11-05T04:55:31.225Z,15.82
2022-11-05T04:58:00.103Z,15.25
2022-11-05T05:00:28.931Z,15.73
2022-11-05T05:03:16.487Z,15.65
2022-11-05T05:06:04.338Z,16.20
2022-11-05T05:08:52.426Z,15.75
2022-11-05T05:11:36.865Z,16.23
2022-11-05T05:14:23.208Z,16.00
2022-11-05T05:17:10.878Z,15.88
2022-11-05T05:20:15.905Z,14.45
2022-11-05T05:23:03.629Z,14.82
2022-11-05T05:25:45.711Z,15.27
2022-11-05T05:28:14.392Z,16.05
2022-11-05T05:30:42.945Z,14.77
2022-11-05T05:33:25.009Z,15.77
2022-11-05T05:35:54.206Z,15.57
2022-11-05T05:38:22.535Z,17.10
2022-11-05T05:40:51.391Z,16.48
2022-11-05T05:43:19.534Z,16.38
2022-11-05T05:45:48.254Z,16.73
2022-11-05T05:48:16.793Z,16.70
2022-11-05T05:51:05.902Z,15.23
2022-11-05T05:53:48.687Z,16.95
2022-11-05T05:56:27.867Z,17.05
2022-11-05T05:59:15.395Z,17.38
2022-11-05T06:01:44.962Z,16.70
2022-11-05T06:04:13.648Z,18.10
2022-11-05T06:06:42.607Z,17.13
2022-11-05T06:09:11.710Z,18.38
2022-11-05T06:11:39.938Z,18.85
2022-11-05T06:14:27.432Z,18.20
2022-11-05T06:17:14.989Z,18.08
2022-11-05T06:20:02.490Z,18.90
2022-11-05T06:22:57.002Z,18.80
2022-11-05T06:25:25.654Z,18.85
2022-11-05T06:27:54.348Z,18.15
2022-11-05T06:30:24.152Z,20.30
2022-11-05T06:33:12.069Z,18.88
2022-11-05T06:35:59.501Z,19.70
2022-11-05T06:38:47.010Z,19.25
2022-11-05T06:41:45.651Z,20.10
2022-11-05T06:44:34.224Z,18.52
2022-11-05T06:47:15.385Z,19.55
2022-11-05T06:49:57.245Z,20.25
2022-11-05T06:52:41.249Z,18.80
2022-11-05T06:55:20.734Z,20.25
2022-11-05T06:58:01.204Z,20.67
2022-11-05T07:00:48.273Z,20.08
2022-11-05T07:03:36.377Z,20.67
2022-11-05T07:06:23.864Z,17.48
2022-11-05T07:09:11.552Z,19.85
2022-11-05T07:11:59.168Z,20.20
2022-11-05T07:14:46.767Z,19.95
2022-11-05T07:17:34.477Z,20.45
2022-11-05T07:20:03.822Z,19.92
2022-11-05T07:22:37.811Z,20.60
2022-11-05T07:25:07.869Z,22.05
2022-11-05T07:27:44.681Z,20.00
2022-11-05T07:30:29.033Z,18.70
2022-11-05T07:33:16.580Z,20.73
2022-11-05T07:35:59.247Z,19.08
2022-11-05T07:38:46.743Z,20.23
2022-11-05T07:41:15.523Z,20.20
2022-11-05T07:43:45.082Z,22.65
2022-11-05T07:46:14.128Z,24.25
2022-11-05T07:48:42.514Z,21.48
2022-11-05T07:51:11.275Z,21.13
2022-11-05T07:53:44.089Z,23.15
2022-11-05T07:56:14.072Z,21.60
2022-11-05T07:58:43.300Z,21.92
2022-11-05T08:01:12.820Z,22.65
2022-11-05T08:03:45.519Z,23.80
2022-11-05T08:06:13.789Z,22.80
2022-11-05T08:08:42.648Z,21.20
2022-11-05T08:11:11.877Z,21.33
2022-11-05T08:13:42.778Z,22.30
2022-11-05T08:16:11.780Z,22.58
2022-11-05T08:18:40.708Z,22.08
2022-11-05T08:21:09.845Z,22.38
2022-11-05T08:23:38.991Z,20.77
2022-11-05T08:26:07.498Z,21.17
2022-11-05T08:28:45.857Z,22.95
2022-11-05T08:31:33.661Z,22.83
2022-11-05T08:34:16.400Z,21.20
2022-11-05T08:37:03.963Z,21.45
2022-11-05T08:39:34.168Z,20.90
2022-11-05T08:42:02.614Z,22.25
2022-11-05T08:44:32.711Z,22.35
2022-11-05T08:47:01.225Z,20.95
2022-11-05T08:49:30.428Z,21.23
2022-11-05T08:52:10.860Z,20.90
2022-11-05T08:54:58.375Z,22.00
2022-11-05T08:57:47.072Z,19.92
2022-11-05T09:00:28.472Z,19.17
2022-11-05T09:03:16.274Z,19.75
2022-11-05T09:06:04.004Z,20.52
2022-11-05T09:08:51.877Z,18.70
2022-11-05T09:12:10.081Z,18.13
2022-11-05T09:14:47.099Z,17.27
2022-11-05T09:17:34.694Z,17.02
2022-11-05T09:20:12.257Z,17.42
2022-11-05T09:22:59.995Z,17.17
2022-11-05T09:25:28.534Z,15.95
2022-11-05T09:28:06.688Z,17.42
2022-11-05T09:30:35.070Z,17.45
2022-11-05T09:33:23.972Z,15.02
2022-11-05T09:35:53.409Z,14.10
2022-11-05T09:38:22.050Z,13.93
2022-11-05T09:41:09.782Z,15.25
2022-11-05T09:43:38.661Z,17.52
2022-11-05T09:46:27.720Z,13.25
2022-11-05T09:49:27.187Z,13.32
2022-11-05T09:52:16.719Z,12.23
2022-11-05T09:55:05.323Z,12.60
2022-11-05T09:57:55.460Z,11.80
2022-11-05T10:00:43.612Z,10.35
2022-11-05T10:03:31.442Z,11.30
2022-11-05T10:06:28.506Z,10.18
2022-11-05T10:09:21.123Z,9.80
2022-11-05T10:12:12.555Z,9.15
2022-11-05T10:14:57.485Z,11.57
2022-11-05T10:17:39.930Z,10.85
2022-11-05T10:20:17.474Z,10.52
2022-11-05T10:22:49.463Z,10.30
2022-11-05T10:25:19.927Z,10.45
2022-11-05T10:27:51.703Z,10.95
2022-11-05T10:30:20.780Z,15.05
2022-11-05T10:33:09.589Z,10.98
2022-11-05T10:35:42.967Z,9.13
2022-11-05T10:38:14.569Z,16.45
2022-11-05T10:40:46.206Z,9.77
2022-11-05T10:43:18.297Z,8.57
2022-11-05T10:45:51.409Z,8.50
2022-11-05T10:48:42.415Z,9.25
2022-11-05T10:51:12.594Z,8.70
2022-11-05T10:53:40.749Z,8.60
2022-11-05T10:56:44.335Z,8.20
2022-11-05T10:59:23.416Z,8.20
2022-11-05T11:02:02.042Z,7.63
2022-11-05T11:04:37.511Z,8.23
2022-11-05T11:07:06.639Z,6.75
2022-11-05T11:09:36.751Z,6.47
2022-11-05T11:12:14.777Z,6.00
2022-11-05T11:15:03.331Z,5.18
2022-11-05T11:17:50.910Z,6.35
2022-11-05T11:20:25.614Z,6.90
2022-11-05T11:23:14.978Z,6.22
2022-11-05T11:25:43.470Z,5.47
2022-11-05T11:28:17.075Z,5.28
2022-11-05T11:30:55.102Z,5.47
2022-11-05T11:33:28.161Z,5.15
2022-11-05T11:35:56.740Z,4.57
2022-11-05T11:38:26.298Z,3.88
2022-11-05T11:41:01.195Z,5.28
2022-11-05T11:43:39.955Z,4.47
2022-11-05T11:46:22.103Z,4.53
2022-11-05T11:49:29.518Z,5.13
2022-11-05T11:52:35.666Z,4.45
2022-11-05T11:55:23.205Z,6.90
2022-11-05T11:58:12.212Z,3.88
2022-11-05T12:01:14.855Z,4.47
2022-11-05T12:04:02.343Z,4.05
2022-11-05T12:06:40.397Z,4.30
2022-11-05T12:09:15.206Z,4.80
2022-11-05T12:11:48.659Z,4.00
2022-11-05T12:14:40.207Z,4.80
2022-11-05T12:17:16.096Z,4.38
2022-11-05T12:19:50.142Z,4.63
2022-11-05T12:22:21.265Z,4.00
2022-11-05T12:25:13.232Z,4.65
2022-11-05T12:27:41.259Z,3.38
2022-11-05T12:30:17.171Z,9.48
2022-11-05T12:32:48.980Z,5.80
2022-11-05T12:35:17.006Z,4.20
2022-11-05T12:38:03.967Z,4.18
2022-11-05T12:40:37.696Z,3.95
2022-11-05T12:43:20.691Z,4.18
2022-11-05T12:45:56.610Z,4.38
2022-11-05T12:48:38.435Z,4.30
2022-11-05T12:51:17.056Z,2.88
2022-11-05T12:53:46.333Z,3.25
2022-11-05T12:56:21.591Z,3.50
2022-11-05T12:58:53.442Z,5.63
2022-11-05T13:01:26.242Z,2.95
2022-11-05T13:03:58.563Z,2.70
2022-11-05T13:06:40.268Z,3.15
2022-11-05T13:09:26.215Z,3.20
2022-11-05T13:12:03.366Z,3.50
2022-11-05T13:15:02.372Z,3.90
2022-11-05T13:17:55.570Z,3.20
2022-11-05T13:20:28.238Z,3.38
2022-11-05T13:22:59.274Z,3.72
2022-11-05T13:25:30.297Z,3.33
2022-11-05T13:28:11.178Z,3.05
2022-11-05T13:30:52.623Z,3.03
2022-11-05T13:33:40.510Z,2.58
2022-11-05T13:36:37.612Z,3.30
2022-11-05T13:39:20.540Z,4.80
2022-11-05T13:41:57.005Z,3.50
2022-11-05T13:44:25.219Z,2.78
2022-11-05T13:46:53.158Z,3.88
2022-11-05T13:49:40.511Z,4.85
2022-11-05T13:52:20.766Z,9.15
2022-11-05T13:54:53.290Z,3.83
2022-11-05T13:57:53.528Z,3.10
2022-11-05T14:00:26.979Z,3.45
2022-11-05T14:03:07.966Z,2.67
2022-11-05T14:05:41.342Z,2.70
2022-11-05T14:08:22.271Z,2.80
2022-11-05T14:11:07.600Z,2.83
2022-11-05T14:13:47.396Z,2.53
2022-11-05T14:16:23.450Z,3.67
2022-11-05T14:18:56.342Z,2.50
2022-11-05T14:21:27.445Z,3.00
2022-11-05T14:24:01.204Z,2.53
2022-11-05T14:26:38.916Z,2.92
2022-11-05T14:29:10.580Z,2.30
2022-11-05T14:32:07.823Z,2.47
2022-11-05T14:34:42.207Z,2.40
2022-11-05T14:39:38.543Z,2.53
2022-11-05T14:42:15.755Z,2.70
2022-11-05T14:45:21.898Z,3.78
2022-11-05T14:48:29.700Z,2.60
2022-11-05T14:51:02.885Z,3.65
2022-11-05T14:53:38.574Z,3.45
2022-11-05T14:56:09.123Z,2.65
2022-11-05T14:58:41.253Z,2.40
2022-11-05T15:01:29.692Z,2.35
2022-11-05T15:04:02.562Z,2.67
2022-11-05T15:06:38.334Z,2.10
2022-11-05T15:09:16.859Z,3.00
2022-11-05T15:11:44.779Z,1.90
2022-11-05T15:14:24.435Z,2.03
2022-11-05T15:16:53.939Z,2.17
2022-11-05T15:19:36.935Z,1.83
2022-11-05T15:22:08.060Z,2.10
2022-11-05T15:24:37.428Z,4.15
2022-11-05T15:27:09.911Z,2.10
2022-11-05T15:29:38.391Z,1.50
2022-11-05T15:32:07.006Z,1.98
2022-11-05T15:34:35.861Z,1.85
2022-11-05T15:37:20.494Z,2.03
2022-11-05T15:39:50.078Z,1.95
2022-11-05T15:42:28.547Z,1.58
2022-11-05T15:44:57.950Z,1.60
2022-11-05T15:47:28.561Z,1.55
2022-11-05T15:50:14.765Z,1.42
2022-11-05T15:52:54.608Z,2.95
2022-11-05T15:55:25.023Z,2.55
2022-11-05T15:58:06.774Z,1.40
2022-11-05T16:00:47.633Z,1.38
2022-11-05T16:03:21.699Z,1.63
2022-11-05T16:05:50.262Z,1.63
2022-11-05T16:08:23.521Z,1.20
2022-11-05T16:11:06.679Z,1.80
2022-11-05T16:13:55.124Z,2.05
2022-11-05T16:16:34.418Z,2.00
2022-11-05T16:19:27.271Z,1.80
2022-11-05T16:21:56.049Z,1.70
2022-11-05T16:24:29.178Z,2.42
2022-11-05T16:27:03.295Z,2.03
2022-11-05T16:29:40.487Z,1.80
2022-11-05T16:32:19.398Z,2.08
2022-11-05T16:34:52.022Z,1.70
2022-11-05T16:37:22.502Z,2.38
2022-11-05T16:39:51.936Z,1.85
2022-11-05T16:42:26.211Z,2.17
2022-11-05T16:44:55.565Z,2.00
2022-11-05T16:47:26.127Z,1.92
2022-11-05T16:49:54.623Z,2.65
2022-11-05T16:52:23.821Z,2.88
2022-11-05T16:54:52.852Z,6.05
2022-11-05T16:57:22.912Z,3.53
2022-11-05T16:59:51.310Z,2.58
2022-11-05T17:02:20.736Z,3.30
2022-11-05T17:04:50.190Z,3.15
2022-11-05T17:07:19.246Z,2.40
2022-11-05T17:09:47.950Z,2.33
2022-11-05T17:12:16.288Z,2.58
2022-11-05T17:14:45.154Z,2.30
2022-11-05T17:17:32.646Z,2.58
2022-11-05T17:20:26.260Z,1.95
2022-11-05T17:23:15.566Z,2.33
2022-11-05T17:26:07.369Z,4.35
2022-11-05T17:28:37.639Z,2.10
2022-11-05T17:31:08.672Z,2.20
2022-11-05T17:33:45.010Z,1.92
2022-11-05T17:36:15.516Z,2.35
2022-11-05T17:38:44.168Z,1.83
2022-11-05T17:41:17.733Z,6.10
2022-11-05T17:43:46.011Z,2.63
2022-11-05T17:46:15.508Z,1.70
2022-11-05T17:48:44.786Z,1.92
2022-11-05T17:51:15.044Z,1.90
2022-11-05T17:53:44.388Z,1.70
2022-11-05T17:56:13.920Z,2.15
2022-11-05T17:58:42.926Z,1.90
2022-11-05T18:01:26.682Z,1.70
2022-11-05T18:04:11.964Z,2.38
2022-11-05T18:06:59.623Z,1.90
2022-11-05T18:09:39.111Z,2.28
2022-11-05T18:12:26.724Z,2.67
2022-11-05T18:14:59.999Z,2.03
2022-11-05T18:17:47.741Z,2.92
2022-11-05T18:20:29.531Z,3.60
2022-11-05T18:23:17.063Z,4.18
2022-11-05T18:26:00.355Z,2.42
2022-11-05T18:28:47.878Z,2.22
2022-11-05T18:31:30.779Z,2.10
2022-11-05T18:34:13.554Z,2.35
2022-11-05T18:36:49.842Z,2.30
2022-11-05T18:39:41.323Z,2.78
2022-11-05T18:42:20.775Z,2.03
2022-11-05T18:45:07.735Z,2.15
2022-11-05T18:47:45.564Z,2.20
2022-11-05T18:50:14.067Z,2.53
2022-11-05T18:52:48.649Z,2.70
2022-11-05T18:55:16.941Z,2.83
2022-11-05T18:57:45.961Z,3.60
2022-11-05T19:00:14.900Z,2.50
2022-11-05T19:03:02.461Z,2.58
2022-11-05T19:05:34.252Z,3.30
2022-11-05T19:08:21.788Z,5.75
2022-11-05T19:11:11.114Z,4.90
2022-11-05T19:13:58.775Z,3.65
2022-11-05T19:16:45.610Z,3.88
2022-11-05T19:19:14.335Z,3.33
2022-11-05T19:21:42.660Z,3.05
2022-11-05T19:24:16.719Z,2.90
2022-11-05T19:26:46.584Z,3.33
2022-11-05T19:29:16.385Z,3.67
2022-11-05T19:31:44.725Z,2.78
2022-11-05T19:34:14.670Z,3.10
2022-11-05T19:36:43.686Z,3.58
2022-11-05T19:39:14.063Z,3.25
2022-11-05T19:42:03.772Z,3.22
2022-11-05T19:44:51.814Z,3.92
2022-11-05T19:47:39.471Z,3.60
2022-11-05T19:50:27.825Z,3.97
2022-11-05T19:53:15.368Z,4.70
2022-11-05T19:56:16.628Z,7.72
2022-11-05T19:59:04.304Z,4.55
2022-11-05T20:01:46.133Z,4.68
2022-11-05T20:04:14.781Z,4.50
2022-11-05T20:06:43.904Z,4.28
2022-11-05T20:09:22.537Z,4.20
2022-11-05T20:11:53.820Z,4.40
2022-11-05T20:14:41.394Z,4.60
2022-11-05T20:17:28.922Z,4.47
2022-11-05T20:20:16.568Z,6.72
2022-11-05T20:23:04.226Z,7.65
2022-11-05T20:25:33.041Z,5.35
2022-11-05T20:28:20.702Z,4.30
2022-11-05T20:31:13.025Z,4.40
2022-11-05T20:34:00.579Z,4.35
2022-11-05T20:36:48.105Z,4.30
2022-11-05T20:39:16.846Z,4.13
2022-11-05T20:41:46.335Z,4.65
2022-11-05T20:44:14.856Z,5.22
2022-11-05T20:47:02.423Z,4.53
2022-11-05T20:49:49.911Z,5.78
2022-11-05T20:52:37.427Z,4.30
2022-11-05T20:55:25.032Z,4.18
2022-11-05T20:57:54.559Z,4.20
2022-11-05T21:00:23.766Z,4.45
2022-11-05T21:03:11.288Z,8.70
2022-11-05T21:05:39.929Z,5.05
2022-11-05T21:08:28.612Z,5.18
2022-11-05T21:11:16.278Z,4.60
2022-11-05T21:14:03.782Z,4.55
2022-11-05T21:16:51.566Z,5.00
2022-11-05T21:19:37.207Z,5.10
2022-11-05T21:22:24.737Z,7.90
2022-11-05T21:25:12.707Z,4.53
2022-11-05T21:28:00.495Z,4.85
2022-11-05T21:30:30.139Z,5.05
2022-11-05T21:33:18.693Z,5.18
2022-11-05T21:35:48.295Z,5.80
2022-11-05T21:38:17.958Z,5.65
2022-11-05T21:41:02.958Z,4.57
2022-11-05T21:43:51.047Z,5.28
2022-11-05T21:46:30.289Z,4.97
2022-11-05T21:49:17.846Z,5.20
2022-11-05T21:52:04.522Z,4.72
2022-11-05T21:54:52.991Z,5.28
2022-11-05T21:57:38.635Z,5.57
2022-11-05T22:00:08.670Z,5.22
2022-11-05T22:02:48.995Z,7.63
2022-11-05T22:05:18.363Z,5.85
2022-11-05T22:07:47.660Z,5.05
2022-11-05T22:10:17.120Z,5.53
2022-11-05T22:13:02.198Z,5.57
2022-11-05T22:15:56.361Z,5.50
2022-11-05T22:21:31.395Z,6.15
2022-11-05T22:24:00.206Z,6.47
2022-11-05T22:26:29.319Z,6.43
2022-11-05T22:28:58.074Z,6.90
2022-11-05T22:31:27.774Z,7.45
2022-11-05T22:33:57.763Z,6.90
2022-11-05T22:36:41.298Z,7.00
2022-11-05T22:39:27.156Z,6.85
2022-11-05T22:42:08.892Z,7.20
2022-11-05T22:44:47.198Z,6.60
2022-11-05T22:47:34.803Z,7.90
2022-11-05T22:50:22.338Z,6.95
2022-11-05T22:53:09.872Z,7.70
2022-11-05T22:55:52.162Z,6.20
2022-11-05T22:58:20.535Z,7.65
2022-11-05T23:00:49.174Z,7.90
2022-11-05T23:03:34.243Z,7.47
2022-11-05T23:06:35.967Z,7.43
2022-11-05T23:09:23.750Z,7.35
2022-11-05T23:11:53.735Z,7.35
2022-11-05T23:14:21.841Z,6.90
2022-11-05T23:17:08.077Z,6.97
2022-11-05T23:20:11.362Z,6.40
2022-11-05T23:23:16.553Z,7.30
2022-11-05T23:26:22.740Z,7.45
2022-11-05T23:29:10.234Z,5.38
2022-11-05T23:31:57.040Z,6.88
2022-11-05T23:34:25.981Z,6.53
2022-11-05T23:37:11.728Z,7.43
2022-11-05T23:39:42.857Z,6.60
2022-11-05T23:42:31.749Z,6.90
2022-11-05T23:45:17.410Z,6.97
2022-11-05T23:48:06.978Z,6.68
2022-11-05T23:50:39.538Z,6.30
2022-11-05T23:53:08.386Z,7.30
2022-11-05T23:55:36.821Z,6.80
2022-11-05T23:58:05.106Z,6.72
